Etusivu
METAR-TAF:

METAR-TAF

Lentoasemat :

Dodge County Airport

Juneau, Wisconsin, Yhdysvallat

Leveyspiiri: 43-25-36N, Pituuspiiri: 088-42-12W, korkeus merenpinnasta: 285 m

Tämänhetkinen sää

Tämä raportti tehtiin 26 minuuttia sitten, kello 07.55 UTC
tyyntä
Lämpötila 18°C
Kosteus 77%
Ilmanpaine 1014 hPa
Näkyvyys: 16.1 km
selkeää

METAR: KUNU 260755Z AUTO 00000KT 10SM CLR 18/14 A2995 RMK AO2 T01750143 TSNO

Aika: 03:21 (08:21 UTC)


TAF: puuttuu

Säähavainnot ja -ennusteet yli 4000 lentoasemalta (METAR- ja TAF-raportit).

Käytössä olevat sääasemat on merkitty karttaan keltaisilla ja punaisilla pisteillä.

Aseta hiiri pisteen päälle nähdäksesi sääaseman nimen.

Klikkaa sitten nähdäksesi säähavainnot ja -ennusteet.

Kartan vaihtaminen: klikkaa mustalla rastilla varustettuja vihreitä pisteitä, niin voit zoomata sisään; viivalla varustettua vihreää pistettä, niin voit zoomata ulos tai vihreitä nuolia, niin pääset viereisille kartoille.


METAR-TAF: